Time;durP1;ratioP1;P1;durP2;ratioP2;P2;SDS_P1;SDS_P2;PMS_P1;PMS_P2;Temp;Humidity;BMP_temperature;BMP_pressure;BME280_temperature;BME280_humidity;BME280_pressure;Samples;Min_cycle;Max_cycle;Signal;HPM_P1;HPM_P2
2022/09/20 00:01:11;;;;;;;9.10;1.23;;;8.80;99.90;;;;;;5011178;28;19952;-75
2022/09/20 00:03:45;;;;;;;14.32;1.00;;;8.80;99.90;;;;;;5011290;28;20054;-76
2022/09/20 00:06:14;;;;;;;12.10;1.48;;;8.70;99.90;;;;;;5011866;28;20049;-76
2022/09/20 00:08:41;;;;;;;10.55;1.83;;;8.70;99.90;;;;;;5010659;28;20042;-75
2022/09/20 00:11:15;;;;;;;16.40;1.85;;;8.60;99.90;;;;;;5011446;28;20078;-75
2022/09/20 00:13:43;;;;;;;13.07;0.98;;;8.70;99.90;;;;;;5011562;28;20080;-75
2022/09/20 00:16:11;;;;;;;13.40;1.15;;;8.60;99.90;;;;;;5011107;28;20053;-76
2022/09/20 00:18:38;;;;;;;12.43;0.80;;;8.60;99.90;;;;;;5009465;28;20042;-75
2022/09/20 00:21:04;;;;;;;9.30;0.80;;;8.60;99.90;;;;;;5009846;28;20141;-75
2022/09/20 00:23:31;;;;;;;11.77;1.02;;;8.60;99.90;;;;;;5011570;28;20453;-76
2022/09/20 00:25:58;;;;;;;;;;;8.50;99.90;;;;;;5011018;28;20179;-76
2022/09/20 00:28:24;;;;;;;8.55;1.02;;;8.50;99.90;;;;;;5011054;28;19925;-76
2022/09/20 00:30:51;;;;;;;16.15;1.00;;;8.50;99.90;;;;;;5011337;28;20045;-78
2022/09/20 00:33:17;;;;;;;18.02;1.20;;;8.40;99.90;;;;;;5011491;28;20054;-76
2022/09/20 00:35:44;;;;;;;11.52;0.95;;;8.30;99.90;;;;;;5010246;28;20050;-76
2022/09/20 00:38:12;;;;;;;17.58;1.20;;;8.30;99.90;;;;;;5010397;28;20461;-75
2022/09/20 00:40:39;;;;;;;17.15;1.75;;;8.20;99.90;;;;;;5010123;28;20494;-76
2022/09/20 00:43:05;;;;;;;15.98;1.02;;;8.10;99.90;;;;;;5009210;28;20171;-75
2022/09/20 00:45:30;;;;;;;8.63;1.05;;;8.10;99.90;;;;;;4990616;28;20176;-75
2022/09/20 00:48:10;;;;;;;16.52;1.58;;;8.00;99.90;;;;;;4999565;28;20528;-76
2022/09/20 00:50:54;;;;;;;15.38;2.08;;;8.00;99.90;;;;;;5008459;28;20050;-76
2022/09/20 00:53:25;;;;;;;13.07;1.27;;;8.00;99.90;;;;;;5010922;28;20043;-76
2022/09/20 00:55:58;;;;;;;12.73;1.13;;;8.00;99.90;;;;;;5011274;28;20080;-76
2022/09/20 00:58:26;;;;;;;7.03;0.75;;;8.00;99.90;;;;;;4990287;28;20065;-81
2022/09/20 01:00:54;;;;;;;10.15;1.73;;;7.90;99.90;;;;;;5008741;28;20391;-76
2022/09/20 01:03:21;;;;;;;12.95;1.00;;;7.90;99.90;;;;;;5010129;28;20137;-76
2022/09/20 01:05:49;;;;;;;13.27;1.25;;;7.80;99.90;;;;;;5010019;28;20050;-76
2022/09/20 01:08:16;;;;;;;10.90;1.27;;;7.80;99.90;;;;;;5011229;28;20061;-75
2022/09/20 01:10:43;;;;;;;16.05;1.23;;;7.70;99.90;;;;;;4996829;28;20395;-76
2022/09/20 01:13:08;;;;;;;10.15;1.23;;;7.70;99.90;;;;;;5011369;28;20151;-75
2022/09/20 01:15:36;;;;;;;11.60;1.00;;;7.80;99.90;;;;;;5010979;28;20081;-78
2022/09/20 01:18:03;;;;;;;18.95;1.60;;;7.80;99.90;;;;;;5009902;28;20220;-75
2022/09/20 01:20:41;;;;;;;14.45;1.05;;;7.80;99.90;;;;;;5008615;28;20084;-77
2022/09/20 01:23:46;;;;;;;15.05;1.00;;;7.90;99.90;;;;;;5010221;28;20050;-76
2022/09/20 01:26:30;;;;;;;10.65;1.08;;;7.90;99.90;;;;;;5011220;28;20058;-76
2022/09/20 01:29:11;;;;;;;14.57;1.63;;;8.00;99.90;;;;;;5010840;28;20041;-75
2022/09/20 01:31:45;;;;;;;10.70;1.27;;;8.00;99.90;;;;;;5010322;28;20124;-77
2022/09/20 01:34:13;;;;;;;13.93;1.20;;;8.10;99.90;;;;;;5010795;28;20049;-75
2022/09/20 01:37:15;;;;;;;17.10;1.30;;;8.10;99.90;;;;;;5008883;28;20049;-77
2022/09/20 01:40:02;;;;;;;19.10;1.50;;;8.10;99.90;;;;;;4986747;28;20340;-76
2022/09/20 01:42:46;;;;;;;17.38;2.17;;;8.10;99.90;;;;;;5011697;28;20056;-80
2022/09/20 01:45:27;;;;;;;9.88;2.30;;;8.10;99.90;;;;;;5020386;28;20510;-77
2022/09/20 01:48:31;;;;;;;14.77;1.20;;;8.10;99.90;;;;;;5028883;28;20050;-78
2022/09/20 01:51:26;;;;;;;12.63;1.00;;;8.10;99.90;;;;;;5009485;28;20054;-77
2022/09/20 01:54:17;;;;;;;12.20;0.95;;;8.10;99.90;;;;;;5009711;28;20050;-76
2022/09/20 01:57:25;;;;;;;12.45;1.10;;;8.10;99.90;;;;;;4993096;28;20046;-77
2022/09/20 02:00:11;;;;;;;10.60;1.40;;;8.10;99.90;;;;;;5009619;28;20609;-76
2022/09/20 02:03:32;;;;;;;23.70;2.13;;;8.10;99.90;;;;;;5008976;28;20100;-78
2022/09/20 02:06:19;;;;;;;10.18;0.90;;;8.10;99.90;;;;;;4986848;28;20133;-75
2022/09/20 02:09:20;;;;;;;5.78;0.88;;;8.10;99.90;;;;;;5012551;28;20181;-75
2022/09/20 02:12:04;;;;;;;15.05;1.17;;;8.20;99.90;;;;;;4972921;28;20663;-74
2022/09/20 02:14:46;;;;;;;14.68;1.10;;;8.20;99.90;;;;;;5010595;28;20141;-76
2022/09/20 02:17:22;;;;;;;13.80;1.10;;;8.20;99.90;;;;;;5000560;28;20049;-74
2022/09/20 02:20:00;;;;;;;10.85;1.08;;;8.20;99.90;;;;;;5014319;28;20107;-74
2022/09/20 02:23:04;;;;;;;21.98;1.42;;;8.30;99.90;;;;;;4996430;28;20049;-74
2022/09/20 02:25:51;;;;;;;9.75;0.90;;;8.30;99.90;;;;;;5014822;28;20458;-75
2022/09/20 02:28:25;;;;;;;14.23;1.15;;;8.30;99.90;;;;;;4996500;28;20133;-75
2022/09/20 02:30:56;;;;;;;15.50;1.77;;;8.30;99.90;;;;;;5028616;28;20107;-75
2022/09/20 02:33:46;;;;;;;12.18;0.93;;;8.40;99.90;;;;;;5014357;28;20050;-75
2022/09/20 02:36:18;;;;;;;12.70;1.20;;;8.40;99.90;;;;;;5014325;28;20536;-75
2022/09/20 02:39:30;;;;;;;10.70;1.10;;;8.40;99.90;;;;;;5013773;28;20080;-74
2022/09/20 02:42:10;;;;;;;18.95;1.35;;;8.50;99.90;;;;;;4990839;28;20088;-75
2022/09/20 02:44:47;;;;;;;10.15;1.80;;;8.50;99.90;;;;;;5014595;28;20052;-77
2022/09/20 02:47:24;;;;;;;;;;;8.50;99.90;;;;;;5016622;28;20084;-74
2022/09/20 02:50:22;;;;;;;7.93;1.27;;;8.50;99.90;;;;;;5013833;28;19941;-75
2022/09/20 02:53:14;;;;;;;17.02;1.00;;;8.50;99.90;;;;;;4997695;28;20054;-79
2022/09/20 02:56:03;;;;;;;9.48;0.85;;;8.60;99.90;;;;;;5023309;28;20050;-75
2022/09/20 02:58:40;;;;;;;17.88;1.10;;;8.60;99.90;;;;;;5020647;28;20042;-76
2022/09/20 03:01:46;;;;;;;15.83;1.30;;;8.60;99.90;;;;;;5000963;28;20142;-74
2022/09/20 03:04:48;;;;;;;15.68;1.20;;;8.60;99.90;;;;;;4985929;28;20061;-79
2022/09/20 03:07:26;;;;;;;8.63;1.05;;;8.70;99.90;;;;;;5013761;28;20053;-77
2022/09/20 03:10:35;;;;;;;12.52;1.00;;;8.70;99.90;;;;;;5011360;28;20056;-76
2022/09/20 03:13:18;;;;;;;8.40;1.20;;;8.80;99.90;;;;;;5013046;28;20046;-77
2022/09/20 03:16:35;;;;;;;11.95;1.20;;;8.80;99.90;;;;;;4994911;28;20482;-77
2022/09/20 03:19:28;;;;;;;10.65;1.10;;;8.80;99.90;;;;;;4994068;28;20057;-79
2022/09/20 03:21:53;;;;;;;8.07;1.65;;;8.80;99.90;;;;;;4992016;28;20403;-76
2022/09/20 03:24:50;;;;;;;11.02;1.05;;;8.80;99.90;;;;;;4993521;28;20062;-77
2022/09/20 03:27:19;;;;;;;;;;;8.80;99.90;;;;;;4993952;28;20126;-76
2022/09/20 03:30:08;;;;;;;8.38;0.95;;;8.80;99.90;;;;;;5024121;28;19936;-75
2022/09/20 03:33:04;;;;;;;12.18;0.85;;;8.80;99.90;;;;;;5010850;28;20099;-77
2022/09/20 03:35:35;;;;;;;14.35;1.05;;;8.80;99.90;;;;;;4993223;28;20442;-75
2022/09/20 03:38:20;;;;;;;12.13;1.77;;;8.80;99.90;;;;;;5002084;28;20046;-75
2022/09/20 03:40:55;;;;;;;12.35;1.67;;;8.80;99.90;;;;;;5011655;28;20046;-77
2022/09/20 03:43:28;;;;;;;9.05;1.35;;;8.80;99.90;;;;;;5011906;28;20124;-77
2022/09/20 03:45:54;;;;;;;14.88;1.85;;;8.80;99.90;;;;;;4995380;28;20487;-76
2022/09/20 03:48:22;;;;;;;12.07;1.55;;;8.80;99.90;;;;;;5010963;28;20045;-76
2022/09/20 03:51:03;;;;;;;9.52;1.80;;;8.80;99.90;;;;;;5011557;28;20076;-76
2022/09/20 03:53:50;;;;;;;11.73;1.55;;;8.80;99.90;;;;;;5011464;28;20089;-78
2022/09/20 03:56:19;;;;;;;14.15;1.95;;;8.90;99.90;;;;;;5012197;28;20239;-76
2022/09/20 03:58:50;;;;;;;16.33;2.05;;;8.90;99.90;;;;;;5011785;28;20045;-75
2022/09/20 04:01:31;;;;;;;9.98;2.90;;;9.00;99.90;;;;;;5012354;28;20061;-75
2022/09/20 04:04:11;;;;;;;14.30;2.03;;;9.00;99.90;;;;;;5012673;28;20386;-77
2022/09/20 04:07:02;;;;;;;15.15;2.90;;;9.00;99.90;;;;;;5013634;28;20401;-76
2022/09/20 04:10:01;;;;;;;16.02;4.43;;;9.10;99.90;;;;;;5012473;28;20429;-75
2022/09/20 04:12:37;;;;;;;13.35;2.90;;;9.10;99.90;;;;;;5010982;28;20096;-77
2022/09/20 04:15:34;;;;;;;16.67;3.05;;;9.10;99.90;;;;;;5011456;28;20082;-77
2022/09/20 04:18:36;;;;;;;16.05;2.75;;;9.10;99.90;;;;;;5010998;28;20053;-77
2022/09/20 04:21:16;;;;;;;16.02;2.70;;;9.10;99.90;;;;;;4988464;28;20058;-78
2022/09/20 04:24:20;;;;;;;17.58;3.88;;;9.20;99.90;;;;;;4993283;28;20073;-79
2022/09/20 04:26:52;;;;;;;16.35;2.33;;;9.20;99.90;;;;;;4997780;28;20060;-75
2022/09/20 04:29:36;;;;;;;15.95;2.13;;;9.20;99.90;;;;;;5017939;28;20092;-78
2022/09/20 04:32:24;;;;;;;17.45;2.42;;;9.30;99.90;;;;;;5015294;28;20046;-76
2022/09/20 04:37:46;;;;;;;14.25;1.52;;;9.40;99.90;;;;;;5013092;28;20486;-74
2022/09/20 04:40:36;;;;;;;10.13;1.33;;;9.40;99.90;;;;;;5012565;28;20053;-76
2022/09/20 04:43:08;;;;;;;8.98;1.23;;;9.40;99.90;;;;;;5018438;28;20312;-74
2022/09/20 04:45:55;;;;;;;9.90;1.15;;;9.50;99.90;;;;;;5023602;28;20050;-76
2022/09/20 04:48:30;;;;;;;16.42;2.35;;;9.50;99.90;;;;;;5010660;28;20041;-75
2022/09/20 04:51:28;;;;;;;12.93;1.88;;;9.70;99.90;;;;;;5009754;28;20041;-75
2022/09/20 04:54:18;;;;;;;13.07;1.70;;;9.80;99.90;;;;;;5007444;28;20399;-75
2022/09/20 04:57:03;;;;;;;6.25;0.98;;;9.80;99.90;;;;;;5011479;28;20053;-83
2022/09/20 05:00:08;;;;;;;8.25;1.13;;;9.90;99.90;;;;;;5010660;28;20042;-73
2022/09/20 05:03:10;;;;;;;8.38;1.52;;;9.90;99.90;;;;;;5009091;28;20544;-76
2022/09/20 05:05:56;;;;;;;6.43;0.80;;;9.80;99.90;;;;;;5010343;28;20446;-77
2022/09/20 05:08:42;;;;;;;5.88;0.80;;;9.80;99.90;;;;;;5011666;28;20042;-77
2022/09/20 05:11:11;;;;;;;10.82;1.52;;;9.80;99.90;;;;;;5010381;28;20058;-76
2022/09/20 05:14:15;;;;;;;11.48;1.10;;;9.80;99.90;;;;;;4993698;28;20101;-79
2022/09/20 05:17:04;;;;;;;6.82;1.00;;;9.80;99.90;;;;;;4969948;28;20384;-77
2022/09/20 05:20:01;;;;;;;15.13;1.88;;;9.70;99.90;;;;;;4937052;28;20050;-76
2022/09/20 05:22:39;;;;;;;;;;;9.60;99.90;;;;;;5000186;28;20093;-76
2022/09/20 05:25:26;;;;;;;16.40;1.35;;;9.50;99.90;;;;;;5010874;28;20589;-76
2022/09/20 05:28:00;;;;;;;12.48;2.42;;;9.40;99.90;;;;;;5010065;28;20050;-75
2022/09/20 05:30:45;;;;;;;8.73;1.48;;;9.40;99.90;;;;;;5009092;28;20128;-76
2022/09/20 05:33:43;;;;;;;11.23;1.17;;;9.40;99.90;;;;;;5009171;28;20443;-81
2022/09/20 05:36:28;;;;;;;6.50;0.93;;;9.30;99.90;;;;;;5008968;28;20045;-79
2022/09/20 05:39:30;;;;;;;9.88;1.38;;;9.30;99.90;;;;;;5012516;28;20042;-75
2022/09/20 05:42:03;;;;;;;12.95;1.13;;;9.20;99.90;;;;;;4994373;28;20461;-77
2022/09/20 05:44:49;;;;;;;10.88;1.50;;;9.20;99.90;;;;;;5010602;28;20057;-76
2022/09/20 05:47:18;;;;;;;11.33;1.20;;;9.20;99.90;;;;;;5015458;28;20104;-76
2022/09/20 05:50:08;;;;;;;11.75;1.20;;;9.20;99.90;;;;;;5011751;28;20517;-76
2022/09/20 05:52:36;;;;;;;7.72;1.30;;;9.30;99.90;;;;;;4996879;28;20046;-76
2022/09/20 05:55:36;;;;;;;10.68;1.45;;;9.30;99.90;;;;;;5013788;28;20088;-75
2022/09/20 05:58:37;;;;;;;8.77;1.58;;;9.40;99.90;;;;;;4997280;28;20038;-78
2022/09/20 06:01:23;;;;;;;8.43;1.77;;;9.40;99.90;;;;;;5014600;28;20112;-78
2022/09/20 06:04:11;;;;;;;13.43;2.80;;;9.50;99.90;;;;;;4996092;28;20509;-83
2022/09/20 06:07:07;;;;;;;20.42;3.00;;;9.50;99.90;;;;;;5013932;28;20068;-78
2022/09/20 06:09:39;;;;;;;8.98;2.63;;;9.60;99.90;;;;;;5014650;28;20128;-76
2022/09/20 06:12:17;;;;;;;20.38;6.10;;;9.60;99.90;;;;;;5014503;28;20042;-76
2022/09/20 06:15:00;;;;;;;23.52;6.35;;;9.70;99.90;;;;;;5013454;28;20073;-78
2022/09/20 06:17:29;;;;;;;15.13;3.63;;;9.70;99.90;;;;;;4995919;28;20058;-75
2022/09/20 06:20:15;;;;;;;6.07;2.10;;;9.80;99.90;;;;;;4989092;28;20137;-76
2022/09/20 06:22:46;;;;;;;17.87;1.80;;;9.80;99.90;;;;;;4993462;28;20414;-75
2022/09/20 06:25:30;;;;;;;12.32;1.75;;;9.80;99.90;;;;;;5011965;28;20808;-75
2022/09/20 06:28:17;;;;;;;9.02;1.60;;;9.90;99.90;;;;;;5012553;28;20133;-77
2022/09/20 06:30:47;;;;;;;11.85;1.20;;;9.90;99.90;;;;;;5013366;28;20133;-77
2022/09/20 06:33:19;;;;;;;9.52;1.17;;;10.00;99.90;;;;;;5010952;28;20490;-77
2022/09/20 06:42:10;;;;;;;9.98;1.58;;;10.50;99.90;;;;;;5013969;28;20053;-79
2022/09/20 06:44:42;;;;;;;10.43;1.88;;;10.60;99.90;;;;;;5013396;28;20046;-76
2022/09/20 06:47:12;;;;;;;8.60;1.02;;;10.80;99.90;;;;;;5014504;28;20045;-74
2022/09/20 06:49:40;;;;;;;12.93;1.38;;;10.90;99.90;;;;;;5012494;28;20069;-76
2022/09/20 06:52:14;;;;;;;13.25;1.80;;;11.00;99.90;;;;;;4997941;28;20050;-76
2022/09/20 06:54:44;;;;;;;13.82;1.65;;;11.10;99.90;;;;;;5006284;28;20116;-78
2022/09/20 06:57:15;;;;;;;6.32;1.10;;;11.20;99.90;;;;;;5020994;28;20041;-77
2022/09/20 06:59:41;;;;;;;7.70;1.15;;;11.30;99.90;;;;;;5023860;28;20418;-78
2022/09/20 07:02:07;;;;;;;10.13;1.65;;;11.40;99.90;;;;;;5019762;28;20046;-79
2022/09/20 07:04:33;;;;;;;7.97;1.52;;;11.40;99.90;;;;;;5015093;28;20081;-79
2022/09/20 07:07:04;;;;;;;12.77;1.60;;;11.40;99.90;;;;;;5012570;28;20426;-77
2022/09/20 07:09:30;;;;;;;14.85;1.70;;;11.40;99.90;;;;;;5014584;28;20399;-77
2022/09/20 07:11:58;;;;;;;10.13;1.23;;;11.30;99.90;;;;;;4993599;28;20042;-80
2022/09/20 07:14:26;;;;;;;11.48;1.77;;;11.30;99.90;;;;;;5003425;28;20487;-79
2022/09/20 07:16:52;;;;;;;9.43;1.27;;;11.30;99.90;;;;;;5014478;28;20183;-78
2022/09/20 07:19:18;;;;;;;9.00;1.27;;;11.30;99.90;;;;;;4995194;28;20128;-78
2022/09/20 07:21:44;;;;;;;9.90;1.10;;;11.30;99.90;;;;;;5013659;28;20195;-77
2022/09/20 07:24:10;;;;;;;8.30;1.02;;;11.30;99.90;;;;;;5013958;28;20142;-78
2022/09/20 07:26:37;;;;;;;7.78;1.15;;;11.30;99.90;;;;;;5012549;28;20061;-77
2022/09/20 07:29:03;;;;;;;11.85;1.33;;;11.30;99.90;;;;;;5013564;28;20139;-77
2022/09/20 07:31:29;;;;;;;7.23;0.90;;;11.50;99.90;;;;;;5013175;28;20056;-78
2022/09/20 07:33:55;;;;;;;12.52;1.13;;;11.40;99.90;;;;;;5010966;28;20470;-79
2022/09/20 07:36:21;;;;;;;9.70;0.90;;;11.50;99.90;;;;;;5013396;28;20081;-77
2022/09/20 07:38:49;;;;;;;9.43;1.23;;;11.50;99.90;;;;;;4997048;28;20050;-78
2022/09/20 07:41:17;;;;;;;9.93;0.82;;;11.60;99.90;;;;;;5030724;28;20049;-76
2022/09/20 07:43:44;;;;;;;4.03;0.70;;;11.70;99.90;;;;;;5022410;28;20058;-75
2022/09/20 07:46:12;;;;;;;13.45;1.33;;;11.80;99.90;;;;;;5013026;28;20075;-78
2022/09/20 07:48:39;;;;;;;11.57;1.25;;;11.80;99.90;;;;;;5011661;28;20136;-79
2022/09/20 07:51:09;;;;;;;;;;;12.00;99.90;;;;;;5009499;28;20042;-79
2022/09/20 07:53:36;;;;;;;13.25;0.93;;;12.30;99.90;;;;;;5011793;28;19921;-77
2022/09/20 07:56:13;;;;;;;8.10;1.45;;;12.30;99.90;;;;;;5010006;28;20034;-82
2022/09/20 07:58:40;;;;;;;10.30;1.55;;;12.50;99.90;;;;;;5012536;28;20069;-77
2022/09/20 08:01:09;;;;;;;8.75;0.93;;;12.50;99.90;;;;;;5010730;28;20061;-75
2022/09/20 08:03:35;;;;;;;12.35;2.05;;;12.70;99.90;;;;;;5011433;28;20061;-74
2022/09/20 08:06:15;;;;;;;12.50;1.50;;;12.90;99.90;;;;;;5010425;28;20317;-82
2022/09/20 08:08:42;;;;;;;12.25;1.52;;;12.90;99.90;;;;;;5010275;28;20489;-75
2022/09/20 08:11:10;;;;;;;13.27;1.33;;;12.90;99.90;;;;;;5011101;28;20446;-76
2022/09/20 08:13:36;;;;;;;10.82;1.90;;;12.80;99.90;;;;;;5009781;28;20064;-77
2022/09/20 08:16:05;;;;;;;8.70;0.90;;;12.80;99.90;;;;;;5004771;28;20132;-81
2022/09/20 08:18:31;;;;;;;8.73;1.90;;;12.80;99.90;;;;;;4991561;28;20045;-79
2022/09/20 08:21:06;;;;;;;12.70;1.70;;;12.90;99.90;;;;;;4990574;28;20049;-76
2022/09/20 08:23:36;;;;;;;9.88;0.70;;;13.00;99.90;;;;;;5011953;28;20129;-76
2022/09/20 08:26:03;;;;;;;7.90;0.75;;;13.10;99.90;;;;;;5012710;28;20041;-78
2022/09/20 08:28:30;;;;;;;;;;;13.10;99.90;;;;;;5011160;28;20100;-78
2022/09/20 08:31:02;;;;;;;8.73;0.52;;;13.20;99.90;;;;;;4998710;28;19961;-76
2022/09/20 08:33:27;;;;;;;13.10;0.82;;;13.30;99.90;;;;;;5009569;28;20108;-79
2022/09/20 08:35:53;;;;;;;6.72;0.63;;;13.40;99.90;;;;;;5010182;28;20474;-76
2022/09/20 08:38:25;;;;;;;8.80;0.60;;;13.40;99.90;;;;;;5010050;28;20053;-75
2022/09/20 08:40:56;;;;;;;8.18;0.70;;;13.50;99.90;;;;;;5009179;28;20398;-78
2022/09/20 08:43:27;;;;;;;14.30;0.80;;;13.50;99.90;;;;;;5009743;28;20093;-78
2022/09/20 08:45:56;;;;;;;6.38;0.60;;;13.50;99.90;;;;;;5011348;28;20569;-79
2022/09/20 08:48:28;;;;;;;6.75;0.75;;;13.50;99.90;;;;;;4992928;28;20050;-77
2022/09/20 08:50:53;;;;;;;9.52;0.68;;;13.50;99.90;;;;;;5017162;28;20042;-78
2022/09/20 08:53:19;;;;;;;7.63;0.50;;;13.50;99.90;;;;;;5026254;28;20050;-76
2022/09/20 08:55:45;;;;;;;12.18;0.80;;;13.50;99.90;;;;;;5009917;28;20383;-76
2022/09/20 08:58:13;;;;;;;7.88;0.85;;;13.60;99.90;;;;;;5010361;28;20474;-76
2022/09/20 09:00:39;;;;;;;6.43;0.47;;;13.70;99.90;;;;;;5010345;28;20049;-76
2022/09/20 09:03:10;;;;;;;7.93;0.90;;;13.70;99.90;;;;;;5009705;28;20042;-76
2022/09/20 09:05:42;;;;;;;10.20;0.90;;;13.70;99.90;;;;;;5009728;28;20042;-77
2022/09/20 09:08:23;;;;;;;5.75;0.57;;;13.80;99.90;;;;;;5012252;28;20123;-81
2022/09/20 09:10:55;;;;;;;11.00;0.88;;;14.00;99.90;;;;;;5009761;28;20060;-78
2022/09/20 09:13:35;;;;;;;9.00;0.60;;;14.20;99.90;;;;;;5006674;28;20532;-80
2022/09/20 09:16:10;;;;;;;7.43;0.65;;;14.30;99.90;;;;;;5011564;28;20045;-77
2022/09/20 09:18:39;;;;;;;8.85;0.50;;;14.50;99.90;;;;;;5009009;28;20108;-79
2022/09/20 09:21:06;;;;;;;5.82;0.50;;;14.60;99.90;;;;;;5008451;28;20455;-76
2022/09/20 09:24:00;;;;;;;9.48;0.60;;;14.60;99.90;;;;;;5010584;28;20237;-77
2022/09/20 09:26:27;;;;;;;6.32;0.45;;;14.40;99.90;;;;;;5010894;28;20054;-77
2022/09/20 09:29:13;;;;;;;;;;;14.50;99.90;;;;;;5009600;28;20058;-75
2022/09/20 09:31:39;;;;;;;;;;;14.40;99.90;;;;;;5007327;28;19925;-78
2022/09/20 09:34:24;;;;;;;8.63;0.80;;;14.30;99.90;;;;;;5001159;28;19976;-77
2022/09/20 09:36:53;;;;;;;11.35;0.77;;;14.30;99.90;;;;;;5011621;28;20096;-76
2022/09/20 09:39:32;;;;;;;10.25;0.88;;;14.30;99.90;;;;;;5009061;28;20037;-76
2022/09/20 09:42:01;;;;;;;6.80;0.65;;;14.30;99.90;;;;;;5009688;28;20046;-76
2022/09/20 09:44:34;;;;;;;8.95;0.47;;;14.20;99.90;;;;;;5009637;28;20050;-77
2022/09/20 09:47:00;;;;;;;8.85;0.60;;;14.20;99.90;;;;;;5025771;28;20453;-74
2022/09/20 09:49:34;;;;;;;10.25;0.50;;;14.10;99.90;;;;;;5007598;28;20092;-77
2022/09/20 09:52:13;;;;;;;11.23;0.70;;;14.20;99.90;;;;;;4992964;28;20049;-77
2022/09/20 09:54:47;;;;;;;13.27;0.88;;;14.20;99.90;;;;;;5010857;28;20085;-77
2022/09/20 09:57:57;;;;;;;7.97;0.60;;;14.30;99.90;;;;;;5011234;28;20136;-79
2022/09/20 10:00:26;;;;;;;11.23;0.80;;;14.30;99.90;;;;;;5009702;28;20050;-79
2022/09/20 10:03:31;;;;;;;11.15;0.63;;;14.40;99.90;;;;;;5007112;28;20088;-78
2022/09/20 10:06:09;;;;;;;11.32;0.98;;;14.80;99.90;;;;;;5010831;28;20517;-79
2022/09/20 10:09:00;;;;;;;9.93;0.70;;;15.10;99.90;;;;;;5010137;28;20823;-78
2022/09/20 10:11:50;;;;;;;5.40;0.40;;;15.20;99.90;;;;;;5010560;28;20147;-78
2022/09/20 10:14:30;;;;;;;8.65;0.50;;;15.00;99.90;;;;;;5009800;28;20057;-80
2022/09/20 10:17:08;;;;;;;6.60;0.50;;;15.00;99.90;;;;;;4996483;28;20565;-79
2022/09/20 10:19:33;;;;;;;9.85;0.40;;;14.90;99.90;;;;;;5003101;28;20046;-76
2022/09/20 10:22:02;;;;;;;4.50;0.40;;;14.80;99.90;;;;;;5006577;28;20061;-76
2022/09/20 10:24:51;;;;;;;10.80;0.40;;;14.90;99.90;;;;;;5012238;28;20053;-78
2022/09/20 10:27:26;;;;;;;6.93;0.70;;;15.00;99.90;;;;;;5007712;28;20046;-76
2022/09/20 10:30:13;;;;;;;7.55;0.68;;;15.20;99.90;;;;;;4998965;28;20041;-75
2022/09/20 10:33:14;;;;;;;13.63;0.70;;;15.40;99.90;;;;;;5012271;28;20061;-78
2022/09/20 10:36:08;;;;;;;6.43;0.30;;;15.60;99.90;;;;;;4991546;28;20054;-75
2022/09/20 10:39:13;;;;;;;11.07;0.70;;;15.60;99.90;;;;;;5031329;28;20046;-77
2022/09/20 10:44:55;;;;;;;10.50;0.77;;;15.10;99.90;;;;;;5013909;28;20337;-74
2022/09/20 10:47:33;;;;;;;12.52;1.10;;;14.80;99.90;;;;;;5012980;28;20045;-75
2022/09/20 10:50:04;;;;;;;8.43;0.70;;;14.40;99.90;;;;;;5013463;28;20085;-76
2022/09/20 10:53:02;;;;;;;10.55;0.70;;;13.90;99.90;;;;;;5013703;28;20383;-80
2022/09/20 10:55:44;;;;;;;11.18;0.80;;;13.30;99.90;;;;;;5017212;28;20049;-79
2022/09/20 10:58:29;;;;;;;6.15;0.57;;;12.50;99.90;;;;;;5023047;28;20065;-83
2022/09/20 11:01:24;;;;;;;12.18;0.80;;;12.10;99.90;;;;;;5028098;28;20100;-78
2022/09/20 11:04:27;;;;;;;9.10;0.82;;;11.80;99.90;;;;;;5026020;28;20513;-81
2022/09/20 11:07:18;;;;;;;5.97;0.65;;;11.60;99.90;;;;;;5023963;28;20105;-81
2022/09/20 11:09:56;;;;;;;5.07;0.60;;;11.60;99.90;;;;;;5016492;28;20093;-79
2022/09/20 11:12:45;;;;;;;7.15;0.60;;;11.60;99.90;;;;;;5015884;28;20050;-80
2022/09/20 11:15:24;;;;;;;6.72;0.75;;;11.70;99.90;;;;;;5015603;28;20401;-81
2022/09/20 11:18:14;;;;;;;12.20;2.00;;;11.90;99.90;;;;;;5013089;28;20050;-81
2022/09/20 11:21:10;;;;;;;7.28;0.68;;;12.10;99.90;;;;;;5013255;28;20053;-82
2022/09/20 11:23:43;;;;;;;7.90;1.02;;;12.30;99.90;;;;;;5005298;28;20054;-82
2022/09/20 11:26:15;;;;;;;9.60;0.70;;;12.50;99.90;;;;;;4994365;28;20138;-83
2022/09/20 11:28:50;;;;;;;5.10;0.82;;;12.60;99.90;;;;;;5006029;28;20710;-83
2022/09/20 11:31:23;;;;;;;10.02;1.38;;;12.80;99.90;;;;;;5013777;28;20046;-83
2022/09/20 11:33:55;;;;;;;7.82;0.93;;;12.90;99.90;;;;;;5013390;28;20457;-83
2022/09/20 11:36:38;;;;;;;7.30;1.13;;;13.00;99.90;;;;;;5011216;28;20057;-82
2022/09/20 11:39:25;;;;;;;7.72;1.13;;;13.20;99.90;;;;;;4981434;28;20038;-79
2022/09/20 11:41:54;;;;;;;6.45;0.77;;;13.40;99.90;;;;;;5019133;28;20133;-78
2022/09/20 11:44:20;;;;;;;9.68;0.75;;;13.30;99.90;;;;;;5015510;28;20045;-77
2022/09/20 11:46:58;;;;;;;8.63;0.77;;;13.20;99.90;;;;;;5012341;28;20046;-75
2022/09/20 11:49:53;;;;;;;5.50;0.82;;;13.20;99.90;;;;;;5010596;28;20050;-77
2022/09/20 11:52:34;;;;;;;7.32;0.70;;;13.30;99.90;;;;;;5013049;28;20140;-76
2022/09/20 11:55:02;;;;;;;6.13;0.60;;;13.30;99.90;;;;;;4995473;28;20050;-77
2022/09/20 11:57:29;;;;;;;6.32;0.80;;;13.40;99.90;;;;;;5010657;28;20053;-76
2022/09/20 11:59:59;;;;;;;6.85;1.00;;;13.50;99.90;;;;;;5011549;28;20049;-76
2022/09/20 12:02:35;;;;;;;8.93;0.95;;;13.60;99.90;;;;;;5012010;28;20046;-80
2022/09/20 12:05:04;;;;;;;6.38;0.52;;;13.60;99.90;;;;;;5011141;28;20049;-80
2022/09/20 12:07:41;;;;;;;8.32;0.60;;;13.60;99.90;;;;;;5012515;28;20505;-79
2022/09/20 12:10:29;;;;;;;10.10;0.90;;;13.70;99.90;;;;;;5011360;28;20132;-79
2022/09/20 12:13:04;;;;;;;6.05;0.55;;;13.80;99.90;;;;;;5013497;28;20052;-78
2022/09/20 12:15:37;;;;;;;11.63;0.90;;;13.80;99.90;;;;;;5009911;28;20451;-80
2022/09/20 12:18:31;;;;;;;15.85;0.80;;;13.90;99.90;;;;;;4991672;28;20057;-81
2022/09/20 12:21:03;;;;;;;5.63;0.73;;;13.90;99.90;;;;;;4993355;28;20442;-78
2022/09/20 12:23:39;;;;;;;7.50;0.80;;;13.90;99.90;;;;;;4994583;28;20100;-76
2022/09/20 12:26:20;;;;;;;9.50;0.80;;;14.00;99.90;;;;;;5012490;28;20057;-80
2022/09/20 12:28:50;;;;;;;12.73;0.80;;;14.10;99.90;;;;;;5011789;28;20041;-77
2022/09/20 12:33:58;;;;;;;7.25;0.90;;;14.20;99.90;;;;;;5011582;28;20054;-80
2022/09/20 12:36:25;;;;;;;4.32;0.93;;;14.10;99.90;;;;;;5012347;28;20058;-76
2022/09/20 12:39:12;;;;;;;8.13;0.80;;;14.00;99.90;;;;;;5011211;28;20140;-77
2022/09/20 12:42:15;;;;;;;11.40;0.75;;;14.20;99.90;;;;;;5014502;28;20050;-76
2022/09/20 12:44:50;;;;;;;8.75;0.65;;;14.30;99.90;;;;;;4987525;28;20119;-77
2022/09/20 12:47:25;;;;;;;5.80;0.50;;;14.20;99.90;;;;;;5012627;28;20050;-79
2022/09/20 12:52:49;;;;;;;7.38;0.73;;;14.40;99.90;;;;;;4992667;28;20060;-79
2022/09/20 12:55:27;;;;;;;10.65;0.63;;;14.50;99.90;;;;;;5010829;28;20449;-78
2022/09/20 12:58:01;;;;;;;5.43;0.50;;;14.50;99.90;;;;;;5014213;28;20128;-83
2022/09/20 13:00:35;;;;;;;8.93;0.60;;;14.60;99.90;;;;;;5012966;28;20050;-78
2022/09/20 13:03:36;;;;;;;5.80;0.50;;;14.70;99.90;;;;;;5023428;28;20057;-78
2022/09/20 13:09:01;;;;;;;6.38;0.60;;;15.20;99.90;;;;;;5025598;28;20095;-80
2022/09/20 13:11:38;;;;;;;8.50;0.60;;;15.30;99.90;;;;;;5023774;28;20058;-79
2022/09/20 13:14:30;;;;;;;8.88;0.70;;;15.50;99.90;;;;;;5022325;28;20544;-80
2022/09/20 13:17:02;;;;;;;6.40;0.50;;;15.70;99.90;;;;;;4998043;28;20050;-80
2022/09/20 13:19:36;;;;;;;7.55;0.60;;;15.70;99.90;;;;;;5004739;28;20054;-78
2022/09/20 13:22:25;;;;;;;7.68;0.52;;;15.60;99.90;;;;;;5019227;28;20168;-80
2022/09/20 13:24:55;;;;;;;7.65;0.70;;;15.40;99.90;;;;;;5005827;28;20065;-81
2022/09/20 13:27:43;;;;;;;6.78;0.98;;;15.10;99.90;;;;;;5017439;28;20121;-78
2022/09/20 13:30:22;;;;;;;8.75;0.50;;;14.90;99.90;;;;;;5012604;28;20050;-83
2022/09/20 13:32:50;;;;;;;8.07;0.70;;;14.70;99.90;;;;;;5005965;28;20517;-80
2022/09/20 13:35:22;;;;;;;7.88;0.70;;;14.60;99.90;;;;;;5007179;28;20048;-79
2022/09/20 13:38:04;;;;;;;24.45;3.50;;;14.60;99.90;;;;;;5010902;28;20046;-79
2022/09/20 13:40:46;;;;;;;13.80;1.33;;;14.60;99.90;;;;;;5014622;28;20046;-79
2022/09/20 13:43:43;;;;;;;8.50;0.80;;;14.50;99.90;;;;;;5007896;28;20375;-80
2022/09/20 13:46:37;;;;;;;9.60;0.90;;;14.60;99.90;;;;;;5025460;28;20104;-79
2022/09/20 13:49:22;;;;;;;5.82;0.60;;;14.60;99.90;;;;;;5008715;28;20046;-80
2022/09/20 13:51:49;;;;;;;7.15;0.50;;;14.70;99.90;;;;;;5025443;28;20108;-80
2022/09/20 13:54:30;;;;;;;8.27;0.50;;;14.70;99.90;;;;;;5003517;28;20495;-81
2022/09/20 13:56:59;;;;;;;9.35;0.80;;;14.70;99.90;;;;;;5006565;28;20042;-81
2022/09/20 13:59:32;;;;;;;6.38;0.60;;;14.60;99.90;;;;;;5017290;28;20046;-80
2022/09/20 14:01:58;;;;;;;12.15;0.77;;;14.70;99.90;;;;;;5021834;28;20088;-78
2022/09/20 14:04:27;;;;;;;7.72;0.40;;;14.70;99.90;;;;;;5020171;28;20491;-83
2022/09/20 14:06:56;;;;;;;5.90;0.50;;;14.80;99.90;;;;;;5018265;28;20061;-81